createdAt,value
2019-05-02T00:00:52.968Z,41.43
2019-05-02T00:03:21.531Z,43.23
2019-05-02T00:05:48.813Z,47.63
2019-05-02T00:08:15.974Z,47.23
2019-05-02T00:10:45.114Z,41.57
2019-05-02T00:13:12.255Z,45.10
2019-05-02T00:15:39.281Z,44.47
2019-05-02T00:18:06.818Z,45.00
2019-05-02T00:20:34.086Z,38.50
2019-05-02T00:23:01.158Z,38.50
2019-05-02T00:25:28.507Z,39.20
2019-05-02T00:27:55.788Z,39.90
2019-05-02T00:30:23.294Z,39.87
2019-05-02T00:32:53.269Z,40.27
2019-05-02T00:35:19.586Z,40.10
2019-05-02T00:37:46.641Z,44.03
2019-05-02T00:40:14.294Z,44.63
2019-05-02T00:42:41.558Z,41.90
2019-05-02T00:45:09.278Z,39.60
2019-05-02T00:47:47.780Z,43.17
2019-05-02T00:50:15.123Z,42.77
2019-05-02T00:52:42.090Z,47.07
2019-05-02T00:55:09.335Z,51.60
2019-05-02T00:57:36.838Z,45.50
2019-05-02T01:00:04.806Z,44.40
2019-05-02T01:02:42.678Z,47.77
2019-05-02T01:05:10.075Z,39.90
2019-05-02T01:07:37.715Z,45.00
2019-05-02T01:10:06.501Z,47.53
2019-05-02T01:12:33.642Z,42.77
2019-05-02T01:15:03.212Z,45.27
2019-05-02T01:17:32.300Z,46.80
2019-05-02T01:19:59.881Z,44.50
2019-05-02T01:22:27.243Z,45.53
2019-05-02T01:24:54.355Z,49.07
2019-05-02T01:27:27.940Z,50.63
2019-05-02T01:30:29.900Z,52.70
2019-05-02T01:33:06.437Z,47.67
2019-05-02T01:35:47.977Z,48.67
2019-05-02T01:38:40.901Z,51.07
2019-05-02T01:41:08.129Z,52.97
2019-05-02T01:43:35.410Z,49.77
2019-05-02T01:46:02.510Z,50.10
2019-05-02T01:48:29.526Z,49.83
2019-05-02T01:50:56.624Z,52.83
2019-05-02T01:53:23.609Z,53.07
2019-05-02T01:55:56.844Z,56.57
2019-05-02T01:58:20.711Z,45.93
2019-05-02T02:00:48.483Z,50.97
2019-05-02T02:03:15.511Z,55.83
2019-05-02T02:05:42.645Z,50.30
2019-05-02T02:08:09.630Z,57.33
2019-05-02T02:10:36.510Z,54.20
2019-05-02T02:13:05.199Z,46.00
2019-05-02T02:15:33.350Z,53.00
2019-05-02T02:18:00.234Z,49.57
2019-05-02T02:20:29.781Z,52.27
2019-05-02T02:23:04.664Z,54.00
2019-05-02T02:25:44.247Z,55.23
2019-05-02T02:28:11.244Z,51.73
2019-05-02T02:30:38.247Z,51.43
2019-05-02T02:33:07.525Z,49.43
2019-05-02T02:35:34.151Z,52.07
2019-05-02T02:38:01.158Z,46.37
2019-05-02T02:40:33.594Z,52.83
2019-05-02T02:42:58.189Z,49.40
2019-05-02T02:45:38.438Z,48.30
2019-05-02T02:48:05.510Z,51.53
2019-05-02T02:50:36.907Z,50.70
2019-05-02T02:53:01.752Z,49.60
2019-05-02T02:55:28.644Z,47.63
2019-05-02T02:57:58.507Z,43.07
2019-05-02T03:00:24.498Z,49.83
2019-05-02T03:02:51.449Z,45.37
2019-05-02T03:05:25.696Z,44.07
2019-05-02T03:07:47.486Z,41.17
2019-05-02T03:10:14.565Z,45.63
2019-05-02T03:13:03.963Z,43.13
2019-05-02T03:15:33.767Z,46.00
2019-05-02T03:18:02.080Z,43.17
2019-05-02T03:20:39.508Z,41.43
2019-05-02T03:22:58.208Z,42.83
2019-05-02T03:25:48.646Z,43.17
2019-05-02T03:27:54.346Z,42.80
2019-05-02T03:30:32.546Z,43.60
2019-05-02T03:33:03.005Z,41.90
2019-05-02T03:35:20.252Z,38.33
2019-05-02T03:37:51.288Z,41.37
2019-05-02T03:40:17.921Z,42.00
2019-05-02T03:42:47.731Z,43.13
2019-05-02T03:45:14.847Z,40.47
2019-05-02T03:47:43.971Z,43.87
2019-05-02T03:50:11.371Z,41.87
2019-05-02T03:52:43.648Z,44.83
2019-05-02T03:55:07.232Z,42.37
2019-05-02T03:57:36.195Z,41.70
2019-05-02T04:00:04.160Z,41.73
2019-05-02T04:02:31.446Z,42.13
2019-05-02T04:05:00.524Z,41.50
2019-05-02T04:07:27.883Z,39.33
2019-05-02T04:09:56.059Z,38.37
2019-05-02T04:12:23.876Z,40.70
2019-05-02T04:14:55.428Z,40.13
2019-05-02T04:17:22.170Z,38.90
2019-05-02T04:19:49.433Z,41.93
2019-05-02T04:22:16.784Z,45.67
2019-05-02T04:24:47.677Z,39.70
2019-05-02T04:27:13.224Z,38.27
2019-05-02T04:29:41.117Z,41.40
2019-05-02T04:32:11.801Z,44.77
2019-05-02T04:34:37.426Z,43.47
2019-05-02T04:37:04.984Z,40.70
2019-05-02T04:39:31.957Z,41.73
2019-05-02T04:42:05.351Z,41.43
2019-05-02T04:44:38.474Z,41.30
2019-05-02T04:47:02.590Z,40.57
2019-05-02T04:49:32.708Z,38.57
2019-05-02T04:52:04.455Z,39.90
2019-05-02T04:54:31.447Z,39.07
2019-05-02T04:56:55.631Z,41.70
2019-05-02T04:59:23.172Z,42.20
2019-05-02T05:01:57.244Z,41.90
2019-05-02T05:04:19.423Z,43.47
2019-05-02T05:06:55.643Z,39.87
2019-05-02T05:09:18.054Z,43.87
2019-05-02T05:11:45.184Z,41.77
2019-05-02T05:14:12.320Z,40.43
2019-05-02T05:16:45.210Z,42.17
2019-05-02T05:19:09.601Z,38.63
2019-05-02T05:21:37.393Z,37.97
2019-05-02T05:24:25.017Z,37.87
2019-05-02T05:26:55.320Z,40.63
2019-05-02T05:29:23.442Z,39.40
2019-05-02T05:31:55.099Z,41.90
2019-05-02T05:34:22.848Z,38.50
2019-05-02T05:36:48.772Z,42.80
2019-05-02T05:39:17.581Z,41.60
2019-05-02T05:41:48.326Z,39.43
2019-05-02T05:44:14.823Z,40.60
2019-05-02T05:46:42.709Z,43.43
2019-05-02T05:49:17.245Z,37.60
2019-05-02T05:51:38.950Z,35.57
2019-05-02T05:54:07.771Z,35.97
2019-05-02T05:56:39.669Z,44.53
2019-05-02T05:59:04.129Z,42.47
2019-05-02T06:01:34.809Z,42.17
2019-05-02T06:04:00.630Z,38.33
2019-05-02T06:06:28.230Z,39.77
2019-05-02T06:08:55.522Z,44.67
2019-05-02T06:11:23.255Z,37.80
2019-05-02T06:13:50.717Z,36.53
2019-05-02T06:16:17.996Z,37.57
2019-05-02T06:18:45.035Z,37.07
2019-05-02T06:21:12.252Z,39.33
2019-05-02T06:23:41.365Z,33.43
2019-05-02T06:26:13.257Z,35.33
2019-05-02T06:28:41.822Z,34.83
2019-05-02T06:31:07.292Z,31.37
2019-05-02T06:33:35.169Z,32.43
2019-05-02T06:36:02.546Z,31.03
2019-05-02T06:38:29.746Z,36.13
2019-05-02T06:40:56.610Z,34.33
2019-05-02T06:43:26.914Z,34.07
2019-05-02T06:45:53.834Z,29.87
2019-05-02T06:48:20.843Z,31.57
2019-05-02T06:50:47.950Z,30.00
2019-05-02T06:53:15.092Z,32.43
2019-05-02T06:55:43.294Z,27.27
2019-05-02T06:58:11.462Z,29.07
2019-05-02T07:00:55.641Z,31.33
2019-05-02T07:03:10.210Z,28.57
2019-05-02T07:05:36.611Z,28.10
2019-05-02T07:08:06.615Z,25.10
2019-05-02T07:10:44.131Z,36.17
2019-05-02T07:13:10.692Z,30.00
2019-05-02T07:16:00.242Z,28.10
2019-05-02T07:18:29.105Z,33.73
2019-05-02T07:20:56.615Z,30.33
2019-05-02T07:23:23.648Z,27.27
2019-05-02T07:25:50.890Z,29.13
2019-05-02T07:28:18.096Z,27.87
2019-05-02T07:30:45.086Z,26.27
2019-05-02T07:33:12.085Z,30.30
2019-05-02T07:35:39.180Z,28.77
2019-05-02T07:38:06.414Z,29.63
2019-05-02T07:40:33.579Z,28.97
2019-05-02T07:43:00.803Z,30.23
2019-05-02T07:45:28.032Z,34.30
2019-05-02T07:47:55.040Z,31.50
2019-05-02T07:50:22.009Z,35.53
2019-05-02T07:52:48.885Z,36.63
2019-05-02T07:55:15.778Z,35.63
2019-05-02T07:57:42.665Z,34.57
2019-05-02T08:00:10.933Z,43.73
2019-05-02T08:02:38.901Z,47.33
2019-05-02T08:05:08.682Z,41.83
2019-05-02T08:07:34.830Z,41.73
2019-05-02T08:10:01.942Z,43.20
2019-05-02T08:12:29.333Z,42.33
2019-05-02T08:14:56.326Z,40.90
2019-05-02T08:17:23.293Z,45.73
2019-05-02T08:19:50.279Z,40.50
2019-05-02T08:22:17.360Z,42.67
2019-05-02T08:24:44.225Z,42.10
2019-05-02T08:27:36.698Z,42.37
2019-05-02T08:30:05.837Z,41.13
2019-05-02T08:32:33.069Z,43.63
2019-05-02T08:34:59.925Z,42.57
2019-05-02T08:37:26.814Z,46.17
2019-05-02T08:39:53.681Z,44.20
2019-05-02T08:42:20.752Z,40.77
2019-05-02T08:44:51.402Z,42.33
2019-05-02T08:47:18.961Z,44.07
2019-05-02T08:49:49.365Z,43.87
2019-05-02T08:52:14.313Z,42.23
2019-05-02T08:54:41.202Z,40.57
2019-05-02T08:57:08.149Z,42.17
2019-05-02T08:59:35.047Z,42.23
2019-05-02T09:02:02.017Z,39.97
2019-05-02T09:04:30.402Z,43.77
2019-05-02T09:07:00.538Z,42.53
2019-05-02T09:09:27.971Z,40.73
2019-05-02T09:12:08.699Z,44.07
2019-05-02T09:14:24.280Z,38.50
2019-05-02T09:16:52.379Z,37.63
2019-05-02T09:19:21.489Z,41.17
2019-05-02T09:21:48.709Z,40.47
2019-05-02T09:24:20.925Z,38.03
2019-05-02T09:26:44.763Z,45.87
2019-05-02T09:29:12.573Z,48.17
2019-05-02T09:31:42.252Z,41.90
2019-05-02T09:34:08.498Z,40.90
2019-05-02T09:36:38.110Z,40.33
2019-05-02T09:39:05.885Z,42.63
2019-05-02T09:41:36.249Z,44.23
2019-05-02T09:44:03.819Z,39.53
2019-05-02T09:46:32.491Z,43.33
2019-05-02T09:49:02.886Z,41.33
2019-05-02T09:51:28.398Z,44.03
2019-05-02T09:53:57.093Z,45.20
2019-05-02T09:56:24.188Z,43.13
2019-05-02T09:58:55.066Z,46.30
2019-05-02T10:01:28.581Z,40.87
2019-05-02T10:03:55.461Z,39.13
2019-05-02T10:06:22.977Z,40.83
2019-05-02T10:08:52.069Z,39.43
2019-05-02T10:11:22.510Z,42.50
2019-05-02T10:13:48.165Z,44.47
2019-05-02T10:16:18.031Z,42.43
2019-05-02T10:18:44.905Z,36.70
2019-05-02T10:21:13.474Z,33.60
2019-05-02T10:23:42.708Z,36.10
2019-05-02T10:26:14.662Z,37.13
2019-05-02T10:28:41.792Z,40.97
2019-05-02T10:31:07.985Z,34.33
2019-05-02T10:33:37.558Z,37.30
2019-05-02T10:36:03.993Z,34.13
2019-05-02T10:38:32.576Z,35.83
2019-05-02T10:41:02.655Z,34.60
2019-05-02T10:43:28.537Z,31.93
2019-05-02T10:46:01.832Z,31.33
2019-05-02T10:48:29.262Z,35.50
2019-05-02T10:51:15.876Z,34.27
2019-05-02T10:53:47.215Z,35.43
2019-05-02T10:56:11.813Z,36.37
2019-05-02T10:58:39.158Z,35.67
2019-05-02T11:01:07.365Z,31.23
2019-05-02T11:03:43.783Z,34.80
2019-05-02T11:06:08.349Z,29.47
2019-05-02T11:08:36.610Z,27.30
2019-05-02T11:11:06.191Z,27.13
2019-05-02T11:13:42.588Z,31.77
2019-05-02T11:16:42.286Z,32.10
2019-05-02T11:19:13.102Z,30.87
2019-05-02T11:21:53.512Z,29.60
2019-05-02T11:24:11.592Z,25.50
2019-05-02T11:26:38.158Z,23.97
2019-05-02T11:29:05.321Z,29.13
2019-05-02T11:31:32.592Z,28.40
2019-05-02T11:34:01.639Z,25.73
2019-05-02T11:36:28.865Z,27.17
2019-05-02T11:39:05.642Z,30.97
2019-05-02T11:41:25.209Z,25.17
2019-05-02T11:43:55.505Z,28.67
2019-05-02T11:46:22.136Z,22.77
2019-05-02T11:48:56.319Z,25.20
2019-05-02T11:51:18.199Z,22.80
2019-05-02T11:53:45.073Z,27.57
2019-05-02T11:56:13.485Z,25.83
2019-05-02T11:58:47.852Z,27.83
2019-05-02T12:01:09.410Z,27.97
2019-05-02T12:03:45.450Z,27.53
2019-05-02T12:06:18.974Z,23.87
2019-05-02T12:08:47.663Z,21.77
2019-05-02T12:11:15.984Z,25.13
2019-05-02T12:13:42.799Z,21.07
2019-05-02T12:16:12.554Z,22.43
2019-05-02T12:18:39.510Z,24.73
2019-05-02T12:21:06.593Z,27.60
2019-05-02T12:23:36.126Z,20.20
2019-05-02T12:26:03.370Z,21.63
2019-05-02T12:28:32.268Z,23.07
2019-05-02T12:30:59.165Z,21.70
2019-05-02T12:33:29.238Z,21.10
2019-05-02T12:35:56.117Z,22.13
2019-05-02T12:38:23.246Z,21.23
2019-05-02T12:40:52.068Z,19.57
2019-05-02T12:43:19.403Z,23.87
2019-05-02T12:45:46.287Z,22.63
2019-05-02T12:48:13.198Z,19.23
2019-05-02T12:50:41.767Z,21.17
2019-05-02T12:53:08.826Z,21.70
2019-05-02T12:55:35.710Z,18.47
2019-05-02T12:58:03.213Z,19.83
2019-05-02T13:00:31.985Z,20.27
2019-05-02T13:03:07.037Z,18.73
2019-05-02T13:05:33.901Z,22.37
2019-05-02T13:08:02.513Z,20.20
2019-05-02T13:10:42.271Z,21.97
2019-05-02T13:13:09.768Z,21.27
2019-05-02T13:15:37.054Z,24.07
2019-05-02T13:18:04.645Z,22.50
2019-05-02T13:20:34.780Z,23.10
2019-05-02T13:23:27.374Z,24.30
2019-05-02T13:25:52.677Z,22.40
2019-05-02T13:28:24.115Z,23.90
2019-05-02T13:31:05.883Z,21.87
2019-05-02T13:33:39.574Z,22.67
2019-05-02T13:36:08.461Z,23.33
2019-05-02T13:38:35.339Z,31.40
2019-05-02T13:41:02.668Z,30.20
2019-05-02T13:43:35.383Z,35.73
2019-05-02T13:46:16.045Z,38.23
2019-05-02T13:48:43.458Z,37.67
2019-05-02T13:51:11.869Z,41.43
2019-05-02T13:53:53.229Z,47.70
2019-05-02T13:56:42.698Z,52.10
2019-05-02T13:59:10.505Z,56.37
2019-05-02T14:01:38.044Z,51.70
2019-05-02T14:04:10.063Z,51.93
2019-05-02T14:06:37.929Z,52.63
2019-05-02T14:09:20.142Z,55.27
2019-05-02T14:12:01.827Z,50.83
2019-05-02T14:14:29.006Z,54.93
2019-05-02T14:16:56.117Z,56.77
2019-05-02T14:19:23.346Z,49.60
2019-05-02T14:21:51.877Z,54.40
2019-05-02T14:24:22.928Z,51.20
2019-05-02T14:26:52.381Z,44.57
2019-05-02T14:29:19.497Z,46.53
2019-05-02T14:31:46.657Z,45.67
2019-05-02T14:34:38.614Z,54.27
2019-05-02T14:37:06.021Z,51.43
2019-05-02T14:39:32.948Z,61.37
2019-05-02T14:42:01.960Z,53.73
2019-05-02T14:44:58.367Z,53.77
2019-05-02T14:46:58.906Z,48.70
2019-05-02T14:49:25.922Z,52.17
2019-05-02T14:51:52.800Z,51.60
2019-05-02T14:54:19.801Z,55.63
2019-05-02T14:57:01.959Z,48.93
2019-05-02T14:59:29.620Z,52.50
2019-05-02T15:02:03.744Z,47.07
2019-05-02T15:04:27.978Z,47.73
2019-05-02T15:06:54.870Z,48.00
2019-05-02T15:09:26.606Z,53.60
2019-05-02T15:12:02.422Z,44.60
2019-05-02T15:14:33.072Z,44.50
2019-05-02T15:17:02.311Z,42.27
2019-05-02T15:19:29.578Z,46.17
2019-05-02T15:21:56.670Z,44.47
2019-05-02T15:24:27.804Z,44.73
2019-05-02T15:26:52.847Z,37.63
2019-05-02T15:29:24.395Z,47.03
2019-05-02T15:32:03.260Z,40.33
2019-05-02T15:34:52.397Z,42.67
2019-05-02T15:37:24.121Z,34.73
2019-05-02T15:42:22.884Z,23.57
2019-05-02T15:44:48.358Z,28.63
2019-05-02T15:47:15.536Z,31.17
2019-05-02T15:49:45.379Z,30.90
2019-05-02T15:52:18.950Z,31.73
2019-05-02T15:54:43.802Z,34.83
2019-05-02T15:57:12.615Z,40.53
2019-05-02T15:59:43.206Z,38.37
2019-05-02T16:02:17.511Z,41.10
2019-05-02T16:04:42.595Z,54.30
2019-05-02T16:07:09.661Z,42.93
2019-05-02T16:09:36.569Z,40.93
2019-05-02T16:12:03.722Z,36.37
2019-05-02T16:14:34.100Z,40.47
2019-05-02T16:17:01.280Z,37.90
2019-05-02T16:19:30.440Z,39.40
2019-05-02T16:22:08.144Z,39.10
2019-05-02T16:24:35.213Z,37.97
2019-05-02T16:27:02.212Z,36.07
2019-05-02T16:29:29.295Z,36.90
2019-05-02T16:32:06.769Z,35.77
2019-05-02T16:34:48.339Z,37.97
2019-05-02T16:37:16.827Z,33.87
2019-05-02T16:39:49.705Z,38.00
2019-05-02T16:42:12.764Z,36.37
2019-05-02T16:44:40.545Z,36.80
2019-05-02T16:47:07.491Z,41.50
2019-05-02T16:49:34.667Z,33.27
2019-05-02T16:52:04.899Z,37.03
2019-05-02T16:54:36.195Z,33.77
2019-05-02T16:57:01.659Z,35.47
2019-05-02T16:59:28.830Z,35.50
2019-05-02T17:01:59.578Z,39.70
2019-05-02T17:04:24.578Z,36.57
2019-05-02T17:06:56.747Z,36.07
2019-05-02T17:09:51.966Z,38.37
2019-05-02T17:12:18.913Z,31.77
2019-05-02T17:15:07.687Z,32.37
2019-05-02T17:17:34.975Z,31.67
2019-05-02T17:20:07.019Z,30.03
2019-05-02T17:22:32.328Z,29.33
2019-05-02T17:25:02.449Z,30.07
2019-05-02T17:27:28.218Z,27.53
2019-05-02T17:29:59.232Z,27.33
2019-05-02T17:32:23.882Z,29.03
2019-05-02T17:34:52.329Z,30.20
2019-05-02T17:37:21.381Z,29.03
2019-05-02T17:39:48.369Z,30.07
2019-05-02T17:42:17.089Z,26.90
2019-05-02T17:44:44.068Z,23.93
2019-05-02T17:47:11.021Z,31.07
2019-05-02T17:49:37.982Z,27.23
2019-05-02T17:52:26.026Z,30.30
2019-05-02T17:54:48.705Z,33.47
2019-05-02T17:57:15.724Z,27.40
2019-05-02T17:59:42.954Z,30.43
2019-05-02T18:02:12.295Z,30.77
2019-05-02T18:04:39.083Z,31.40
2019-05-02T18:07:06.082Z,30.93
2019-05-02T18:09:35.018Z,30.97
2019-05-02T18:12:01.874Z,30.50
2019-05-02T18:14:28.929Z,34.47
2019-05-02T18:16:55.830Z,31.20
2019-05-02T18:19:24.605Z,30.87
2019-05-02T18:21:52.835Z,33.33
2019-05-02T18:24:19.740Z,30.60
2019-05-02T18:26:46.613Z,31.50
2019-05-02T18:29:15.478Z,27.57
2019-05-02T18:31:47.351Z,32.70
2019-05-02T18:34:14.325Z,33.00
2019-05-02T18:36:41.706Z,31.23
2019-05-02T18:39:08.935Z,30.07
2019-05-02T18:41:42.035Z,30.90
2019-05-02T18:44:06.534Z,31.93
2019-05-02T18:46:36.791Z,30.83
2019-05-02T18:49:02.780Z,29.17
2019-05-02T18:51:32.017Z,29.03
2019-05-02T18:54:04.217Z,30.03
2019-05-02T18:56:34.288Z,29.13
2019-05-02T18:58:58.630Z,36.67
2019-05-02T19:01:25.762Z,30.67
2019-05-02T19:03:56.191Z,28.60
2019-05-02T19:06:22.124Z,29.03
2019-05-02T19:08:52.255Z,26.93
2019-05-02T19:11:19.578Z,29.40
2019-05-02T19:13:46.678Z,27.07
2019-05-02T19:16:13.919Z,24.80
2019-05-02T19:18:42.503Z,22.83
2019-05-02T19:21:12.329Z,24.83
2019-05-02T19:23:39.302Z,24.63
2019-05-02T19:26:09.824Z,24.03
2019-05-02T19:28:53.887Z,23.10
2019-05-02T19:31:22.848Z,21.03
2019-05-02T19:33:49.956Z,21.07
2019-05-02T19:36:24.207Z,24.57
2019-05-02T19:38:46.637Z,19.63
2019-05-02T19:41:13.787Z,21.70
2019-05-02T19:43:49.543Z,19.63
2019-05-02T19:46:12.123Z,18.77
2019-05-02T19:48:41.067Z,18.53
2019-05-02T19:51:12.704Z,15.40
2019-05-02T19:53:38.805Z,13.37
2019-05-02T19:56:06.764Z,12.87
2019-05-02T19:58:36.623Z,11.50
2019-05-02T20:01:04.404Z,11.10
2019-05-02T20:03:32.315Z,10.67
2019-05-02T20:06:02.555Z,8.73
2019-05-02T20:08:29.090Z,12.53
2019-05-02T20:10:58.292Z,7.33
2019-05-02T20:13:28.036Z,7.47
2019-05-02T20:16:05.768Z,7.27
2019-05-02T20:18:34.975Z,7.20
2019-05-02T20:21:23.507Z,7.43
2019-05-02T20:23:44.164Z,7.03
2019-05-02T20:26:15.402Z,6.20
2019-05-02T20:28:42.261Z,7.20
2019-05-02T20:31:09.797Z,8.40
2019-05-02T20:33:37.107Z,9.50
2019-05-02T20:36:04.412Z,9.40
2019-05-02T20:38:32.464Z,6.90
2019-05-02T20:40:59.850Z,8.40
2019-05-02T20:43:26.934Z,6.60
2019-05-02T20:45:54.200Z,8.40
2019-05-02T20:48:22.709Z,7.77
2019-05-02T20:50:51.959Z,6.27
2019-05-02T20:53:28.811Z,6.10
2019-05-02T20:55:48.531Z,6.13
2019-05-02T20:58:15.734Z,11.37
2019-05-02T21:00:42.958Z,6.80
2019-05-02T21:03:11.817Z,6.23
2019-05-02T21:05:46.241Z,7.70
2019-05-02T21:08:34.394Z,7.30
2019-05-02T21:11:01.851Z,7.90
2019-05-02T21:13:29.263Z,6.77
2019-05-02T21:15:56.505Z,6.30
2019-05-02T21:18:23.710Z,6.50
2019-05-02T21:20:52.568Z,7.73
2019-05-02T21:23:21.878Z,7.60
2019-05-02T21:25:49.163Z,6.73
2019-05-02T21:28:16.494Z,7.83
2019-05-02T21:30:43.755Z,7.00
2019-05-02T21:33:31.988Z,6.67
2019-05-02T21:35:59.439Z,6.93
2019-05-02T21:38:26.547Z,7.90
2019-05-02T21:40:53.711Z,6.43
2019-05-02T21:43:22.138Z,6.40
2019-05-02T21:45:51.643Z,9.50
2019-05-02T21:48:19.127Z,6.13
2019-05-02T21:50:51.764Z,6.13
2019-05-02T21:53:35.449Z,6.20
2019-05-02T21:56:17.517Z,5.70
2019-05-02T21:59:03.146Z,6.83
2019-05-02T22:01:32.917Z,8.00
2019-05-02T22:04:02.137Z,5.63
2019-05-02T22:06:29.454Z,6.13
2019-05-02T22:08:56.639Z,7.10
2019-05-02T22:11:23.897Z,6.07
2019-05-02T22:13:51.662Z,6.90
2019-05-02T22:16:18.819Z,6.40
2019-05-02T22:18:45.957Z,6.50
2019-05-02T22:21:13.041Z,6.57
2019-05-02T22:23:42.358Z,7.73
2019-05-02T22:26:09.128Z,9.00
2019-05-02T22:28:36.100Z,6.00
2019-05-02T22:31:03.373Z,12.63
2019-05-02T22:33:30.522Z,7.27
2019-05-02T22:35:59.414Z,5.43
2019-05-02T22:38:40.056Z,9.73
2019-05-02T22:41:07.006Z,5.93
2019-05-02T22:43:34.285Z,9.30
2019-05-02T22:46:04.781Z,7.13
2019-05-02T22:48:31.908Z,6.00
2019-05-02T22:50:59.009Z,6.13
2019-05-02T22:53:25.978Z,8.77
2019-05-02T22:55:52.881Z,9.63
2019-05-02T22:58:19.764Z,6.53
2019-05-02T23:00:46.799Z,7.03
2019-05-02T23:03:13.686Z,8.10
2019-05-02T23:05:42.146Z,6.27
2019-05-02T23:08:09.302Z,9.43
2019-05-02T23:10:36.210Z,6.60
2019-05-02T23:13:03.318Z,6.10
2019-05-02T23:15:31.989Z,8.73
2019-05-02T23:17:59.057Z,8.07
2019-05-02T23:20:26.038Z,7.20
2019-05-02T23:22:52.926Z,6.27
2019-05-02T23:25:28.557Z,6.73
2019-05-02T23:27:59.866Z,6.33
2019-05-02T23:30:26.857Z,9.23
2019-05-02T23:32:53.715Z,5.77
2019-05-02T23:35:20.682Z,8.83
2019-05-02T23:37:48.666Z,6.97
2019-05-02T23:40:15.878Z,8.83
2019-05-02T23:42:42.906Z,6.97
2019-05-02T23:45:11.966Z,7.67
2019-05-02T23:47:39.013Z,6.87
2019-05-02T23:50:06.253Z,7.30
2019-05-02T23:52:33.118Z,6.00
2019-05-02T23:55:00.132Z,6.20
2019-05-02T23:57:27.147Z,6.73
2019-05-02T23:59:54.023Z,6.07
